createdAt,value
2022-09-30T00:09:29.032Z,226.63
2022-09-30T00:19:33.631Z,216.83
2022-09-30T00:29:36.864Z,226.20
2022-09-30T00:39:41.470Z,224.57
2022-09-30T00:49:44.723Z,222.67
2022-09-30T00:59:52.343Z,219.40
2022-09-30T01:09:55.618Z,216.57
2022-09-30T01:20:43.222Z,221.07
2022-09-30T01:31:09.770Z,216.70
2022-09-30T01:41:23.457Z,215.33
2022-09-30T01:51:38.555Z,221.37
2022-09-30T02:01:49.194Z,216.60
2022-09-30T02:11:57.148Z,220.37
2022-09-30T02:22:11.777Z,213.73
2022-09-30T02:32:22.217Z,221.50
2022-09-30T02:42:28.697Z,217.97
2022-09-30T02:52:48.940Z,226.23
2022-09-30T03:03:00.611Z,214.80
2022-09-30T03:13:41.072Z,218.00
2022-09-30T03:24:33.334Z,220.67
2022-09-30T03:34:55.480Z,227.00
2022-09-30T03:45:08.357Z,224.43
2022-09-30T03:55:13.113Z,231.90
2022-09-30T04:05:16.578Z,228.80
2022-09-30T04:15:21.319Z,226.37
2022-09-30T04:25:24.800Z,229.20
2022-09-30T04:35:30.205Z,229.33
2022-09-30T04:45:33.569Z,226.83
2022-09-30T04:55:38.176Z,229.97
2022-09-30T05:05:45.909Z,225.03
2022-09-30T05:15:51.972Z,230.93
2022-09-30T05:25:55.793Z,225.50
2022-09-30T05:36:03.785Z,226.70
2022-09-30T05:46:07.477Z,228.73
2022-09-30T05:56:13.405Z,239.10
2022-09-30T06:06:17.244Z,224.33
2022-09-30T06:16:22.023Z,231.70
2022-09-30T06:26:25.366Z,227.57
2022-09-30T06:36:30.210Z,235.63
2022-09-30T06:46:33.594Z,225.57
2022-09-30T06:56:38.376Z,248.87
2022-09-30T07:06:42.071Z,230.87
2022-09-30T07:16:46.722Z,229.40
2022-09-30T07:26:50.166Z,225.67
2022-09-30T07:36:54.777Z,232.03
2022-09-30T07:46:58.711Z,227.37
2022-09-30T07:57:10.222Z,224.50
2022-09-30T08:07:16.033Z,219.47
2022-09-30T08:17:20.656Z,216.67
2022-09-30T08:27:23.969Z,220.30
2022-09-30T08:37:28.706Z,222.77
2022-09-30T08:47:44.962Z,223.90
2022-09-30T08:57:49.758Z,226.17
2022-09-30T09:08:03.678Z,221.33
2022-09-30T09:18:35.367Z,222.03
2022-09-30T09:28:49.126Z,221.00
2022-09-30T09:39:12.481Z,222.90
2022-09-30T09:49:35.036Z,219.93
2022-09-30T09:59:55.702Z,218.13
2022-09-30T10:10:23.400Z,223.07
2022-09-30T10:20:34.616Z,220.40
2022-09-30T10:30:44.037Z,231.67
2022-09-30T10:40:51.662Z,227.13
2022-09-30T10:50:56.965Z,224.30
2022-09-30T11:01:18.798Z,220.27
2022-09-30T11:11:27.299Z,220.20
2022-09-30T11:21:43.455Z,210.37
2022-09-30T11:31:57.656Z,210.77
2022-09-30T11:42:09.831Z,227.53
2022-09-30T11:52:22.015Z,229.47
2022-09-30T12:02:37.514Z,216.10
2022-09-30T12:12:41.014Z,215.50
2022-09-30T12:22:49.092Z,223.73
2022-09-30T12:33:43.396Z,212.43
2022-09-30T12:44:41.474Z,217.53
2022-09-30T12:54:49.394Z,211.17
2022-09-30T13:04:54.080Z,211.20
2022-09-30T13:15:41.638Z,199.53
2022-09-30T13:25:56.203Z,205.83
2022-09-30T13:36:10.285Z,204.77
2022-09-30T13:46:26.846Z,209.10
2022-09-30T13:56:35.145Z,210.43
2022-09-30T14:06:51.663Z,212.63
2022-09-30T14:17:28.029Z,208.67
2022-09-30T14:27:53.339Z,210.97
2022-09-30T14:38:01.030Z,210.47
2022-09-30T14:48:09.779Z,212.43
2022-09-30T14:58:28.792Z,223.60
2022-09-30T15:08:33.737Z,215.07
2022-09-30T15:18:46.189Z,213.33
2022-09-30T15:28:51.077Z,213.50
2022-09-30T15:38:55.189Z,203.83
2022-09-30T15:49:02.280Z,202.47
2022-09-30T15:59:08.869Z,209.87
2022-09-30T16:09:34.583Z,208.23
2022-09-30T16:19:44.349Z,210.60
2022-09-30T16:29:49.250Z,209.70
2022-09-30T16:39:52.565Z,212.43
2022-09-30T16:49:57.715Z,212.83
2022-09-30T17:00:01.449Z,206.77
2022-09-30T17:10:07.956Z,208.23
2022-09-30T17:20:13.661Z,220.37
2022-09-30T17:30:21.519Z,216.60
2022-09-30T17:40:43.399Z,216.03
2022-09-30T17:50:51.160Z,216.17
2022-09-30T18:00:57.937Z,209.70
2022-09-30T18:11:03.012Z,219.20
2022-09-30T18:21:07.340Z,223.40
2022-09-30T18:31:27.301Z,220.17
2022-09-30T18:41:34.513Z,221.63
2022-09-30T18:51:40.450Z,217.60
2022-09-30T19:01:45.384Z,233.87
2022-09-30T19:11:52.898Z,226.17
2022-09-30T19:22:00.337Z,232.97
2022-09-30T19:32:09.643Z,231.33
2022-09-30T19:42:14.444Z,230.60
2022-09-30T19:52:22.350Z,230.63
2022-09-30T20:02:26.773Z,229.07
2022-09-30T20:12:34.236Z,238.00
2022-09-30T20:22:37.917Z,232.40
2022-09-30T20:32:43.053Z,239.00
2022-09-30T20:42:46.396Z,234.33
2022-09-30T20:52:51.040Z,230.00
2022-09-30T21:02:55.108Z,220.43
2022-09-30T21:13:01.308Z,223.40
2022-09-30T21:23:04.738Z,225.50
2022-09-30T21:33:09.337Z,228.33
2022-09-30T21:43:12.611Z,228.07
2022-09-30T21:53:17.545Z,221.80
2022-09-30T22:03:21.324Z,228.13
2022-09-30T22:13:25.912Z,226.30
2022-09-30T22:23:29.117Z,227.97
2022-09-30T22:33:51.394Z,229.30
2022-09-30T22:43:54.597Z,238.20
2022-09-30T22:54:01.282Z,236.33
2022-09-30T23:04:04.622Z,227.37
2022-09-30T23:14:09.465Z,232.67
2022-09-30T23:24:12.996Z,226.17
2022-09-30T23:34:18.424Z,225.37
2022-09-30T23:44:21.653Z,226.57
2022-09-30T23:54:26.218Z,229.43
